Accueil
METAR-TAF:

METAR-TAF

Aéroports :

Crestview, Floride, États-Unis

latitude: 30-46-20N, longitude: 086-31-12W, altitude: 65 m

Observation

Le bulletin a été fait il y a 21 minutes, à 15:27 UTC
Vent 3 kt de sud-est
Température 27°C
Humidité 70%
Pression 1022 hPa
Visibilité: 16.1 km
Nuages fragmentés à une hauteur de 2400 ft
Nuages fragmentés à une hauteur de 3000 ft
Nuages fragmentés à une hauteur de 4500 ft

METAR: KCEW 021527Z AUTO 14003KT 10SM BKN024 BKN030 BKN045 27/21 A3017 RMK AO2 T02720211

Heure: 10:48 (15:48 UTC)


TAF: absent

Observations et prévisions météorologiques de plus de 4000 aéroports (messages METAR et TAF).

Les stations disponibles sont représentées par des disques jaunes et rouges sur la carte.

Passer la souris dessus pour voir le nom de la station.

Cliquer dessus pour voir les observations et prévisions météorologiques.

Pour changer de carte: cliquez sur les boutons verts avec une croix noire pour zoomer, sur le bouton vert avec un tiret pour effectuer un zoom arrière, ou sur les flèches vertes pour les cartes adjacentes.


METAR-TAF: